Time;durP1;ratioP1;P1;durP2;ratioP2;P2;SDS_P1;SDS_P2;PMS_P1;PMS_P2;Temp;Humidity;BMP_temperature;BMP_pressure;BME280_temperature;BME280_humidity;BME280_pressure;Samples;Min_cycle;Max_cycle;Signal;HPM_P1;HPM_P2
2022/11/28 07:06:28;;;;;;;7.78;7.03;;;;;;;7.98;100.00;100726.47;5280385;28;20414;-70
2022/11/28 07:09:00;;;;;;;8.43;7.65;;;;;;;7.96;100.00;100736.13;5278230;28;20037;-70
2022/11/28 07:11:32;;;;;;;9.45;8.65;;;;;;;8.00;100.00;100734.44;5279469;28;20472;-70
2022/11/28 07:14:03;;;;;;;8.50;7.75;;;;;;;8.02;100.00;100740.53;5280216;28;20036;-70
2022/11/28 07:16:34;;;;;;;7.95;7.25;;;;;;;8.05;100.00;100738.06;5272717;28;20048;-71
2022/11/28 07:19:06;;;;;;;8.70;7.72;;;;;;;8.09;100.00;100743.84;5257906;28;20029;-70
2022/11/28 07:21:37;;;;;;;8.07;7.38;;;;;;;8.06;100.00;100736.13;5259524;28;20473;-71
2022/11/28 07:24:08;;;;;;;7.60;6.90;;;;;;;8.07;100.00;100746.06;5259250;28;20052;-71
2022/11/28 07:26:40;;;;;;;7.13;6.50;;;;;;;8.12;100.00;100743.28;5258278;28;20034;-70
2022/11/28 07:29:16;;;;;;;8.63;7.72;;;;;;;8.13;100.00;100742.22;5264581;28;20103;-71
2022/11/28 07:31:47;;;;;;;7.28;6.35;;;;;;;8.17;100.00;100734.19;5279964;28;20468;-71
2022/11/28 07:34:19;;;;;;;7.88;7.07;;;;;;;8.18;100.00;100742.22;5267010;28;20033;-71
2022/11/28 07:36:53;;;;;;;7.28;6.68;;;;;;;8.20;100.00;100751.03;5258219;28;20037;-70
2022/11/28 07:39:24;;;;;;;7.35;6.47;;;;;;;8.23;100.00;100756.03;5264948;28;20316;-70
2022/11/28 07:41:55;;;;;;;7.15;6.55;;;;;;;8.27;100.00;100751.59;5272494;28;20522;-70
2022/11/28 07:44:26;;;;;;;7.57;6.88;;;;;;;8.28;100.00;100749.66;5274919;28;20033;-71
2022/11/28 07:46:58;;;;;;;6.93;6.32;;;;;;;8.31;100.00;100757.41;5258044;28;20025;-71
2022/11/28 07:49:29;;;;;;;7.22;6.53;;;;;;;8.32;100.00;100758.22;5266950;28;20024;-71
2022/11/28 07:52:03;;;;;;;7.60;6.80;;;;;;;8.36;100.00;100762.09;5261691;28;20108;-70
2022/11/28 07:54:35;;;;;;;6.68;5.65;;;;;;;8.43;100.00;100759.91;5257919;28;20498;-69
2022/11/28 07:57:06;;;;;;;7.70;6.90;;;;;;;8.37;100.00;100766.53;5262555;28;20021;-72
2022/11/28 07:59:37;;;;;;;7.25;6.57;;;;;;;8.42;100.00;100774.84;5263529;28;20440;-73
2022/11/28 08:02:12;;;;;;;7.53;6.82;;;;;;;8.41;100.00;100784.22;5266853;28;20056;-72
2022/11/28 08:04:43;;;;;;;7.20;6.60;;;;;;;8.41;100.00;100773.16;5278575;28;20040;-72
2022/11/28 08:07:14;;;;;;;7.80;7.03;;;;;;;8.43;100.00;100768.19;5274167;28;20565;-72
2022/11/28 08:09:45;;;;;;;8.38;7.63;;;;;;;8.40;100.00;100766.81;5257067;28;20052;-69
2022/11/28 08:12:17;;;;;;;7.07;6.38;;;;;;;8.46;100.00;100770.41;5258171;28;20021;-70
2022/11/28 08:14:48;;;;;;;8.55;6.90;;;;;;;8.46;100.00;100774.00;5257581;28;20025;-70
2022/11/28 08:17:19;;;;;;;7.60;6.90;;;;;;;8.45;100.00;100774.28;5247304;28;20068;-70
2022/11/28 08:19:51;;;;;;;7.60;6.90;;;;;;;8.45;100.00;100780.63;5244324;28;20021;-69
2022/11/28 08:22:22;;;;;;;6.72;6.13;;;;;;;8.47;100.00;100777.59;5243446;28;20032;-69
2022/11/28 08:24:53;;;;;;;7.00;6.40;;;;;;;8.47;100.00;100788.66;5244686;28;20065;-70
2022/11/28 08:27:24;;;;;;;7.32;6.63;;;;;;;8.51;100.00;100778.69;5243630;28;20033;-71
2022/11/28 08:29:56;;;;;;;7.43;6.72;;;;;;;8.55;100.00;100782.56;5243295;28;20140;-70
2022/11/28 08:32:29;;;;;;;7.10;6.40;;;;;;;8.49;100.00;100786.44;5243727;28;20026;-70
2022/11/28 08:35:00;;;;;;;7.72;6.68;;;;;;;8.48;100.00;100790.31;5244185;28;20018;-70
2022/11/28 08:37:31;;;;;;;7.50;6.70;;;;;;;8.49;100.00;100786.44;5242470;28;20551;-70
2022/11/28 08:40:03;;;;;;;7.50;6.80;;;;;;;8.52;100.00;100796.13;5243674;28;20033;-70
2022/11/28 08:42:35;;;;;;;7.35;6.72;;;;;;;8.49;100.00;100792.81;5256357;28;20063;-71
2022/11/28 08:45:09;;;;;;;8.90;8.00;;;;;;;8.51;100.00;100795.28;5264476;28;20031;-70
2022/11/28 08:47:40;;;;;;;7.70;7.00;;;;;;;8.49;100.00;100795.56;5264456;28;20388;-70
2022/11/28 08:50:11;;;;;;;8.98;6.85;;;;;;;8.57;100.00;100801.66;5263833;28;20021;-70
2022/11/28 08:52:43;;;;;;;9.13;7.35;;;;;;;8.54;100.00;100803.03;5264430;28;20032;-71
2022/11/28 08:55:14;;;;;;;8.98;7.90;;;;;;;8.59;100.00;100797.50;5252494;28;20067;-70
2022/11/28 08:57:45;;;;;;;7.97;7.28;;;;;;;8.52;100.00;100796.94;5242927;28;20033;-70
2022/11/28 09:00:18;;;;;;;9.70;7.25;;;;;;;8.54;100.00;100789.22;5263043;28;20107;-69
2022/11/28 09:02:49;;;;;;;8.55;7.78;;;;;;;8.55;100.00;100785.34;5264281;28;20029;-69
2022/11/28 09:05:23;;;;;;;7.60;6.90;;;;;;;8.58;100.00;100781.19;5263199;28;20045;-69
2022/11/28 09:07:55;;;;;;;7.45;6.70;;;;;;;8.54;100.00;100791.13;5248267;28;20493;-70
2022/11/28 09:10:26;;;;;;;8.48;7.68;;;;;;;8.59;100.00;100791.13;5243152;28;20070;-70
2022/11/28 09:12:57;;;;;;;9.57;7.65;;;;;;;8.58;100.00;100795.00;5242155;28;20461;-70
2022/11/28 09:15:29;;;;;;;7.97;7.07;;;;;;;8.64;100.00;100800.25;5248022;28;20032;-71
2022/11/28 09:18:00;;;;;;;8.10;6.82;;;;;;;8.62;100.00;100802.47;5263353;28;20020;-70
2022/11/28 09:20:32;;;;;;;8.10;7.30;;;;;;;8.67;100.00;100810.75;5264007;28;20025;-70
2022/11/28 09:23:04;;;;;;;7.57;6.88;;;;;;;8.68;100.00;100808.81;5263741;28;20522;-70
2022/11/28 09:25:38;;;;;;;8.60;7.80;;;;;;;8.67;100.00;100813.53;5262854;28;20064;-70
2022/11/28 09:28:10;;;;;;;7.68;6.95;;;;;;;8.63;100.00;100814.34;5262854;28;20052;-70
2022/11/28 09:30:41;;;;;;;7.82;7.13;;;;;;;8.70;100.00;100812.97;5263704;28;20024;-70
2022/11/28 09:33:12;;;;;;;7.20;6.50;;;;;;;8.76;100.00;100818.50;5251664;28;20096;-69
2022/11/28 09:35:46;;;;;;;7.55;6.82;;;;;;;8.73;100.00;100813.53;5243146;28;20033;-70
2022/11/28 09:38:17;;;;;;;8.35;6.85;;;;;;;8.75;100.00;100811.31;5242868;28;20083;-70
2022/11/28 09:40:50;;;;;;;7.63;6.93;;;;;;;8.78;100.00;100805.22;5241974;28;20029;-71
2022/11/28 09:43:41;;;;;;;7.95;6.88;;;;;;;8.79;100.00;100818.75;5242449;28;20025;-69
2022/11/28 09:46:26;;;;;;;7.25;6.55;;;;;;;8.81;100.00;100815.72;5261390;28;20033;-70
2022/11/28 09:49:03;;;;;;;8.82;8.02;;;;;;;8.77;100.00;100814.59;5262589;28;20079;-70
2022/11/28 09:51:49;;;;;;;8.48;7.68;;;;;;;8.81;100.00;100813.78;5263216;28;20028;-71
2022/11/28 09:54:36;;;;;;;;;;;;;;;8.93;100.00;100821.78;5262645;28;20029;-71
2022/11/28 09:57:15;;;;;;;8.45;7.53;;;;;;;8.89;100.00;100824.25;5263223;28;19912;-71
2022/11/28 09:59:47;;;;;;;8.80;8.00;;;;;;;8.87;100.00;100820.97;5262168;28;20353;-71
2022/11/28 10:02:49;;;;;;;8.68;7.88;;;;;;;8.90;100.00;100819.59;5263029;28;20144;-71
2022/11/28 10:06:00;;;;;;;8.98;8.10;;;;;;;8.92;100.00;100825.66;5262460;28;20056;-71
2022/11/28 10:08:44;;;;;;;10.55;9.45;;;;;;;8.83;100.00;100813.50;5220132;28;20068;-70
2022/11/28 10:11:24;;;;;;;9.40;8.43;;;;;;;8.87;100.00;100814.59;5242003;28;20037;-71
2022/11/28 10:14:14;;;;;;;10.15;9.15;;;;;;;8.94;100.00;100817.91;5241198;28;20108;-71
2022/11/28 10:17:03;;;;;;;9.60;8.60;;;;;;;8.94;100.00;100817.91;5242186;28;20053;-71
2022/11/28 10:19:41;;;;;;;9.88;8.98;;;;;;;8.89;100.00;100826.22;5241818;28;20196;-70
2022/11/28 10:22:17;;;;;;;10.13;9.23;;;;;;;8.90;100.00;100814.06;5258572;28;20418;-71
2022/11/28 10:24:53;;;;;;;9.43;8.63;;;;;;;8.91;100.00;100818.47;5245286;28;20443;-71
2022/11/28 10:27:34;;;;;;;11.05;10.02;;;;;;;8.95;100.00;100818.72;5241820;28;20472;-71
2022/11/28 10:30:13;;;;;;;10.57;9.57;;;;;;;8.99;100.00;100820.66;5250444;28;20535;-71
2022/11/28 10:32:52;;;;;;;10.60;9.60;;;;;;;9.01;100.00;100815.69;5262529;28;20391;-71
2022/11/28 10:35:52;;;;;;;10.63;9.63;;;;;;;9.05;100.00;100821.47;5244123;28;20029;-71
2022/11/28 10:38:26;;;;;;;10.90;9.80;;;;;;;9.04;100.00;100817.88;5241782;28;20112;-71
2022/11/28 10:41:14;;;;;;;11.73;10.63;;;;;;;9.10;100.00;100814.00;5250219;28;20020;-71
2022/11/28 10:43:53;;;;;;;10.73;9.73;;;;;;;9.14;100.00;100825.34;5261388;28;20033;-71
2022/11/28 10:46:50;;;;;;;11.90;10.70;;;;;;;9.16;100.00;100827.84;5241572;28;20480;-71
2022/11/28 10:49:59;;;;;;;10.63;9.63;;;;;;;9.09;100.00;100826.16;5235696;28;20084;-71
2022/11/28 10:52:38;;;;;;;10.73;9.73;;;;;;;9.07;100.00;100830.31;5241473;28;20116;-71
2022/11/28 10:55:26;;;;;;;12.43;11.23;;;;;;;9.09;100.00;100833.66;5241866;28;20018;-71
2022/11/28 10:58:43;;;;;;;11.68;10.48;;;;;;;9.16;100.00;100833.38;5242725;28;20037;-72
2022/11/28 11:01:15;;;;;;;12.57;11.20;;;;;;;9.07;100.00;100833.91;5198148;28;20568;-71
2022/11/28 11:03:46;;;;;;;14.27;12.05;;;;;;;9.06;100.00;100834.22;5236490;28;20033;-71
2022/11/28 11:06:18;;;;;;;13.65;12.27;;;;;;;9.05;100.00;100833.38;5241121;28;20057;-69
2022/11/28 11:08:49;;;;;;;14.88;12.43;;;;;;;9.04;100.00;100831.72;5241325;28;20022;-71
2022/11/28 11:11:29;;;;;;;50.75;45.35;;;;;;;9.10;100.00;100830.63;5240047;28;20113;-71
2022/11/28 11:14:09;;;;;;;15.20;13.60;;;;;;;9.13;100.00;100824.50;5254106;28;20021;-70
2022/11/28 11:17:00;;;;;;;14.55;13.13;;;;;;;9.16;100.00;100827.84;5261392;28;20104;-70
2022/11/28 11:19:32;;;;;;;15.18;11.50;;;;;;;9.29;100.00;100819.75;5261210;28;20384;-68
2022/11/28 11:22:31;;;;;;;14.80;13.30;;;;;;;9.19;100.00;100822.56;5260345;28;20029;-70
2022/11/28 11:25:14;;;;;;;15.82;14.05;;;;;;;9.19;100.00;100824.50;5240167;28;20022;-69
2022/11/28 11:27:51;;;;;;;16.23;14.63;;;;;;;9.20;100.00;100829.72;5241008;28;20440;-70
2022/11/28 11:30:24;;;;;;;16.75;15.15;;;;;;;9.19;100.00;100818.97;5240690;28;20022;-70
2022/11/28 11:32:58;;;;;;;17.48;15.27;;;;;;;9.20;100.00;100823.38;5256917;28;20036;-69
2022/11/28 11:35:34;;;;;;;19.83;15.43;;;;;;;9.17;100.00;100823.94;5261732;28;20100;-70
2022/11/28 11:38:21;;;;;;;18.70;16.77;;;;;;;9.20;100.00;100817.84;5261753;28;20021;-69
2022/11/28 11:40:52;;;;;;;17.05;15.23;;;;;;;9.16;100.00;100816.75;5254732;28;20053;-72
2022/11/28 11:43:35;;;;;;;18.20;15.98;;;;;;;9.22;100.00;100821.97;5241030;28;20149;-70
2022/11/28 11:46:11;;;;;;;20.77;18.08;;;;;;;9.23;100.00;100820.03;5249321;28;20116;-69
2022/11/28 11:48:45;;;;;;;19.33;16.98;;;;;;;9.22;100.00;100815.63;5254529;28;20032;-69
2022/11/28 11:51:25;;;;;;;20.55;17.73;;;;;;;9.25;100.00;100815.06;5257650;28;20025;-70
2022/11/28 11:54:11;;;;;;;21.08;18.77;;;;;;;9.29;100.00;100816.16;5264413;28;20124;-70
2022/11/28 11:56:45;;;;;;;24.67;18.27;;;;;;;9.27;100.00;100823.91;5265231;28;20017;-73
2022/11/28 11:59:21;;;;;;;25.20;19.45;;;;;;;9.33;100.00;100826.41;5264974;28;20086;-74
2022/11/28 12:01:59;;;;;;;22.48;18.90;;;;;;;9.35;100.00;100826.09;5260405;28;20052;-73
2022/11/28 12:04:40;;;;;;;24.30;20.13;;;;;;;9.43;100.00;100831.03;5244045;28;20033;-73
2022/11/28 12:07:26;;;;;;;24.75;19.60;;;;;;;9.41;100.00;100829.66;5262141;28;20033;-71
2022/11/28 12:09:59;;;;;;;23.17;19.20;;;;;;;9.43;100.00;100833.81;5259126;28;20018;-72
2022/11/28 12:12:35;;;;;;;21.13;16.83;;;;;;;9.57;100.00;100834.06;5247331;28;20100;-69
2022/11/28 12:15:24;;;;;;;29.23;24.95;;;;;;;9.77;100.00;100833.13;5254525;28;20025;-70
2022/11/28 12:18:09;;;;;;;14.77;12.30;;;;;;;9.95;100.00;100826.13;5248658;28;20483;-69
2022/11/28 12:20:54;;;;;;;25.25;19.02;;;;;;;9.72;100.00;100825.69;5242861;28;20025;-70
2022/11/28 12:23:57;;;;;;;24.65;19.70;;;;;;;9.76;100.00;100825.94;5247898;28;20034;-69
2022/11/28 12:26:49;;;;;;;30.13;21.67;;;;;;;9.56;100.00;100830.47;5226963;28;20058;-69
2022/11/28 12:29:38;;;;;;;30.08;22.05;;;;;;;9.57;100.00;100834.06;5242959;28;20068;-69
2022/11/28 12:32:16;;;;;;;32.90;23.10;;;;;;;9.58;100.00;100830.97;5243568;28;20060;-69
2022/11/28 12:35:02;;;;;;;31.23;20.85;;;;;;;9.56;100.00;100826.84;5243171;28;20878;-70
2022/11/28 12:37:48;;;;;;;31.80;21.23;;;;;;;9.57;100.00;100826.56;5243400;28;20107;-70
2022/11/28 12:40:31;;;;;;;30.70;21.10;;;;;;;9.58;100.00;100830.97;5255339;28;20035;-69
2022/11/28 12:43:17;;;;;;;25.92;21.90;;;;;;;9.61;100.00;100826.81;5263399;28;20029;-69
2022/11/28 12:46:33;;;;;;;34.50;21.60;;;;;;;9.64;100.00;100830.97;5263695;28;20040;-70
2022/11/28 12:49:19;;;;;;;31.08;21.88;;;;;;;9.62;100.00;100827.66;5219902;28;20030;-69
2022/11/28 12:52:16;;;;;;;35.95;22.52;;;;;;;9.62;100.00;100830.44;5263524;28;20083;-70
2022/11/28 12:55:15;;;;;;;30.67;22.52;;;;;;;9.67;100.00;100822.09;5263982;28;20021;-72
2022/11/28 12:58:13;;;;;;;30.25;23.55;;;;;;;9.64;100.00;100822.66;5247324;28;20029;-71
2022/11/28 13:01:20;;;;;;;31.20;22.17;;;;;;;9.70;100.00;100827.06;5244439;28;20057;-69
2022/11/28 13:04:03;;;;;;;30.77;23.35;;;;;;;9.71;100.00;100824.00;5241162;28;20124;-71
2022/11/28 13:06:44;;;;;;;35.45;25.42;;;;;;;9.70;100.00;100822.34;5242643;28;20065;-73
2022/11/28 13:09:27;;;;;;;38.65;25.65;;;;;;;9.74;100.00;100825.38;5243006;28;20338;-70
2022/11/28 13:12:28;;;;;;;28.42;23.15;;;;;;;9.72;100.00;100825.69;5242207;28;20546;-72
2022/11/28 13:15:07;;;;;;;34.60;23.08;;;;;;;9.77;100.00;100824.84;5258782;28;20038;-71
2022/11/28 13:18:02;;;;;;;34.55;23.88;;;;;;;9.83;100.00;100826.44;5263174;28;20090;-69
2022/11/28 13:20:55;;;;;;;34.22;23.92;;;;;;;9.81;100.00;100828.66;5263717;28;20491;-71
2022/11/28 13:23:44;;;;;;;35.72;22.17;;;;;;;9.80;100.00;100830.63;5263529;28;20060;-69
2022/11/28 13:26:20;;;;;;;28.65;22.08;;;;;;;9.88;100.00;100834.72;5263407;28;20025;-71
2022/11/28 13:29:00;;;;;;;68.30;55.05;;;;;;;10.02;100.00;100835.78;5263203;28;20037;-73
2022/11/28 13:32:04;;;;;;;30.42;21.60;;;;;;;10.00;100.00;100838.00;5250514;28;20086;-75
2022/11/28 13:34:39;;;;;;;28.77;22.25;;;;;;;9.97;100.00;100832.19;5243823;28;20068;-73
2022/11/28 13:37:36;;;;;;;27.70;21.75;;;;;;;10.05;100.00;100844.59;5242159;28;20022;-71
2022/11/28 13:40:42;;;;;;;37.55;22.88;;;;;;;10.05;100.00;100845.44;5245575;28;20028;-70
2022/11/28 13:43:29;;;;;;;31.92;21.88;;;;;;;9.92;100.00;100851.59;5207188;28;20087;-70
2022/11/28 13:46:01;;;;;;;45.58;35.45;;;;;;;9.92;100.00;100849.69;5241099;28;20033;-70
2022/11/28 13:48:42;;;;;;;34.42;23.30;;;;;;;9.97;100.00;100854.34;5253204;28;20025;-70
2022/11/28 13:51:13;;;;;;;36.40;22.42;;;;;;;9.91;100.00;100858.25;5262523;28;20029;-69
2022/11/28 13:53:46;;;;;;;30.85;23.15;;;;;;;9.93;100.00;100856.88;5260555;28;20587;-69
2022/11/28 13:56:27;;;;;;;32.83;21.00;;;;;;;9.94;100.00;100857.69;5261964;28;20079;-69
2022/11/28 13:59:01;;;;;;;31.20;22.52;;;;;;;9.95;100.00;100862.94;5241174;28;20029;-71
2022/11/28 14:01:48;;;;;;;35.38;23.92;;;;;;;9.94;100.00;100855.75;5242079;28;20100;-71
2022/11/28 14:04:19;;;;;;;34.22;24.38;;;;;;;9.93;100.00;100856.88;5242079;28;20041;-70
2022/11/28 14:06:58;;;;;;;33.85;23.63;;;;;;;9.88;100.00;100851.34;5240908;28;20042;-71
2022/11/28 14:09:43;;;;;;;34.50;26.42;;;;;;;9.90;100.00;100851.91;5242051;28;20040;-71
2022/11/28 14:12:44;;;;;;;28.05;20.98;;;;;;;9.94;100.00;100850.19;5250445;28;20044;-72
2022/11/28 14:15:29;;;;;;;34.03;22.65;;;;;;;9.92;100.00;100860.75;5260970;28;20033;-70
2022/11/28 14:18:00;;;;;;;31.25;22.48;;;;;;;9.93;100.00;100859.63;5244526;28;20072;-71
2022/11/28 14:20:50;;;;;;;32.77;21.87;;;;;;;9.92;100.00;100862.69;5240522;28;20037;-71
2022/11/28 14:23:36;;;;;;;38.13;22.52;;;;;;;9.94;100.00;100864.06;5254774;28;20398;-70
2022/11/28 14:26:37;;;;;;;33.67;22.77;;;;;;;9.94;100.00;100872.34;5241316;28;20068;-70
2022/11/28 14:29:21;;;;;;;34.63;22.30;;;;;;;10.00;100.00;100867.66;5240280;28;20017;-70
2022/11/28 14:31:55;;;;;;;32.17;22.13;;;;;;;9.89;100.00;100880.69;5241098;28;20029;-70
2022/11/28 14:34:43;;;;;;;26.27;19.95;;;;;;;10.11;100.00;100885.03;5245908;28;20026;-72
2022/11/28 14:37:20;;;;;;;33.28;21.73;;;;;;;10.09;100.00;100884.50;5241355;28;20029;-72
2022/11/28 14:39:53;;;;;;;34.05;23.55;;;;;;;10.04;100.00;100884.53;5256608;28;20027;-71
2022/11/28 14:42:24;;;;;;;34.35;25.38;;;;;;;10.01;100.00;100883.16;5251405;28;20028;-70
2022/11/28 14:44:59;;;;;;;32.67;23.95;;;;;;;10.04;100.00;100877.03;5249797;28;20368;-71
2022/11/28 14:47:33;;;;;;;;;;;;;;;10.12;100.00;100883.91;5251853;28;20025;-70
2022/11/28 14:50:04;;;;;;;33.58;22.80;;;;;;;10.00;100.00;100887.88;5258288;28;19912;-71
2022/11/28 14:52:40;;;;;;;28.30;21.63;;;;;;;10.01;100.00;100886.75;5255865;28;20571;-71
2022/11/28 14:55:22;;;;;;;29.25;22.30;;;;;;;10.02;100.00;100880.09;5242816;28;20033;-70
2022/11/28 14:57:53;;;;;;;34.70;23.00;;;;;;;9.94;100.00;100886.22;5260799;28;20044;-71
2022/11/28 15:00:46;;;;;;;29.10;21.88;;;;;;;9.99;100.00;100890.91;5259776;28;20021;-71
2022/11/28 15:04:14;;;;;;;27.98;20.08;;;;;;;9.98;100.00;100892.84;5260211;28;20029;-71
2022/11/28 15:06:49;;;;;;;31.58;20.05;;;;;;;9.89;100.00;100891.78;5217988;28;20128;-71
2022/11/28 15:09:34;;;;;;;28.52;20.13;;;;;;;9.94;100.00;100886.22;5217279;28;20022;-70
2022/11/28 15:12:24;;;;;;;33.50;21.15;;;;;;;9.96;100.00;100888.72;5241253;28;20076;-70
2022/11/28 15:14:57;;;;;;;31.27;22.58;;;;;;;9.88;100.00;100900.38;5261590;28;20029;-71
2022/11/28 15:17:32;;;;;;;26.65;21.05;;;;;;;9.93;100.00;100894.81;5259222;28;20449;-70
2022/11/28 15:20:16;;;;;;;33.53;23.65;;;;;;;9.97;100.00;100895.91;5253512;28;20025;-70
2022/11/28 15:22:48;;;;;;;30.23;21.25;;;;;;;9.93;100.00;100892.06;5260691;28;20029;-70
2022/11/28 15:25:22;;;;;;;34.13;21.70;;;;;;;9.94;100.00;100893.69;5239722;28;20365;-74
2022/11/28 15:27:54;;;;;;;30.65;21.60;;;;;;;9.87;100.00;100894.03;5254671;28;20041;-71
2022/11/28 15:30:25;;;;;;;37.42;20.75;;;;;;;9.91;100.00;100900.63;5251734;28;20032;-71
2022/11/28 15:32:59;;;;;;;27.63;19.98;;;;;;;9.91;100.00;100906.19;5246917;28;20120;-69
2022/11/28 15:35:31;;;;;;;30.23;20.15;;;;;;;9.91;100.00;100911.72;5249617;28;20498;-70
2022/11/28 15:38:02;;;;;;;24.70;21.55;;;;;;;9.90;100.00;100918.38;5244060;28;20047;-70
2022/11/28 15:40:37;;;;;;;31.20;20.30;;;;;;;9.94;100.00;100926.94;5244734;28;20129;-72
2022/11/28 15:43:13;;;;;;;26.00;20.30;;;;;;;9.92;100.00;100929.16;5249077;28;20032;-72
2022/11/28 15:45:52;;;;;;;26.85;19.38;;;;;;;9.92;100.00;100924.47;5255699;28;20091;-71
2022/11/28 15:48:46;;;;;;;31.25;21.83;;;;;;;9.94;100.00;100927.78;5264910;28;20407;-70
2022/11/28 15:51:35;;;;;;;34.20;24.13;;;;;;;9.93;100.00;100926.13;5244536;28;20086;-70
2022/11/28 15:54:24;;;;;;;28.83;20.15;;;;;;;9.95;100.00;100929.44;5244791;28;20036;-72
2022/11/28 15:56:59;;;;;;;26.63;21.75;;;;;;;9.95;100.00;100925.84;5244464;28;20029;-72
2022/11/28 15:59:31;;;;;;;36.03;22.88;;;;;;;9.95;100.00;100929.44;5243929;28;20025;-70
2022/11/28 16:02:28;;;;;;;33.65;20.67;;;;;;;9.94;100.00;100935.25;5244331;28;20021;-71
2022/11/28 16:05:08;;;;;;;33.67;20.25;;;;;;;9.91;100.00;100930.28;5254007;28;20083;-71
2022/11/28 16:07:42;;;;;;;30.02;19.65;;;;;;;9.89;100.00;100927.78;5263998;28;20029;-70
2022/11/28 16:10:24;;;;;;;29.83;19.48;;;;;;;9.87;100.00;100924.50;5265307;28;20109;-71
2022/11/28 16:13:03;;;;;;;32.35;19.30;;;;;;;9.87;100.00;100927.28;5262294;28;20033;-71
2022/11/28 16:15:35;;;;;;;28.52;20.35;;;;;;;9.86;100.00;100936.69;5264765;28;20096;-71
2022/11/28 16:18:11;;;;;;;25.85;19.65;;;;;;;9.84;100.00;100944.44;5264435;28;20051;-71
2022/11/28 16:20:43;;;;;;;27.95;17.83;;;;;;;9.82;100.00;100952.22;5260217;28;20017;-72
2022/11/28 16:23:47;;;;;;;25.20;19.27;;;;;;;9.88;100.00;100956.63;5296543;28;20055;-71
2022/11/28 16:26:33;;;;;;;28.17;18.65;;;;;;;9.80;100.00;100965.50;5237999;28;20112;-73
2022/11/28 16:29:08;;;;;;;29.73;18.73;;;;;;;9.82;100.00;100966.06;5242170;28;20034;-72
2022/11/28 16:31:42;;;;;;;29.63;19.48;;;;;;;9.83;100.00;100970.47;5247064;28;20030;-72
2022/11/28 16:34:14;;;;;;;24.90;18.83;;;;;;;9.78;100.00;100970.50;5242751;28;20464;-72
2022/11/28 16:36:48;;;;;;;28.80;20.15;;;;;;;9.83;100.00;100976.03;5242117;28;20045;-71
